createdAt,value
2023-03-16T00:00:49.975Z,74.49
2023-03-16T00:01:50.798Z,74.29
2023-03-16T00:02:50.972Z,73.87
2023-03-16T00:03:50.515Z,74.08
2023-03-16T00:04:51.414Z,73.77
2023-03-16T00:05:51.413Z,73.00
2023-03-16T00:06:51.913Z,73.32
2023-03-16T00:07:51.178Z,73.00
2023-03-16T00:08:51.338Z,73.00
2023-03-16T00:09:51.525Z,72.69
2023-03-16T00:10:52.456Z,72.90
2023-03-16T00:11:52.415Z,72.69
2023-03-16T00:12:52.063Z,73.00
2023-03-16T00:13:52.240Z,72.90
2023-03-16T00:14:52.445Z,72.28
2023-03-16T00:15:52.620Z,72.38
2023-03-16T00:16:52.782Z,72.69
2023-03-16T00:17:52.966Z,72.38
2023-03-16T00:18:53.135Z,71.97
2023-03-16T00:19:53.328Z,72.28
2023-03-16T00:20:53.458Z,71.97
2023-03-16T00:21:53.588Z,71.97
2023-03-16T00:22:53.773Z,72.17
2023-03-16T00:23:53.920Z,72.28
2023-03-16T00:24:54.100Z,71.97
2023-03-16T00:25:54.920Z,71.97
2023-03-16T00:26:54.426Z,71.86
2023-03-16T00:27:56.918Z,72.10
2023-03-16T00:28:54.776Z,72.20
2023-03-16T00:29:54.976Z,72.31
2023-03-16T00:30:55.962Z,71.34
2023-03-16T00:31:55.408Z,71.23
2023-03-16T00:32:55.483Z,71.23
2023-03-16T00:33:55.658Z,71.27
2023-03-16T00:34:56.425Z,72.00
2023-03-16T00:35:57.456Z,71.89
2023-03-16T00:36:56.235Z,72.00
2023-03-16T00:37:56.418Z,72.20
2023-03-16T00:38:57.459Z,72.31
2023-03-16T00:39:56.825Z,71.92
2023-03-16T00:40:59.317Z,72.13
2023-03-16T00:41:57.041Z,72.41
2023-03-16T00:42:58.912Z,72.24
2023-03-16T00:43:57.412Z,72.41
2023-03-16T00:44:57.840Z,71.92
2023-03-16T00:45:57.834Z,72.03
2023-03-16T00:46:58.476Z,71.79
2023-03-16T00:47:58.155Z,72.10
2023-03-16T00:48:58.340Z,71.92
2023-03-16T00:49:58.965Z,71.30
2023-03-16T00:50:58.733Z,71.61
2023-03-16T00:51:59.413Z,72.03
2023-03-16T00:52:59.790Z,72.13
2023-03-16T00:53:59.297Z,71.20
2023-03-16T00:54:59.473Z,71.30
2023-03-16T00:55:59.664Z,71.41
2023-03-16T00:56:59.804Z,71.61
2023-03-16T00:57:59.954Z,71.41
2023-03-16T00:59:00.118Z,71.30
2023-03-16T01:00:00.267Z,70.89
2023-03-16T01:01:00.445Z,70.78
2023-03-16T01:02:00.606Z,70.85
2023-03-16T01:03:01.441Z,69.92
2023-03-16T01:04:00.951Z,69.71
2023-03-16T01:05:01.956Z,69.60
2023-03-16T01:06:01.353Z,69.71
2023-03-16T01:07:01.538Z,69.60
2023-03-16T01:08:01.684Z,69.43
2023-03-16T01:09:01.972Z,69.60
2023-03-16T01:10:01.995Z,69.71
2023-03-16T01:11:02.958Z,69.19
2023-03-16T01:12:02.312Z,69.40
2023-03-16T01:13:03.443Z,69.60
2023-03-16T01:14:03.415Z,69.40
2023-03-16T01:15:03.426Z,69.19
2023-03-16T01:16:04.918Z,68.56
2023-03-16T01:17:03.247Z,68.66
2023-03-16T01:18:03.321Z,68.88
2023-03-16T01:19:03.469Z,69.09
2023-03-16T01:20:03.650Z,68.46
2023-03-16T01:21:04.411Z,69.19
2023-03-16T01:22:03.941Z,68.15
2023-03-16T01:23:04.116Z,67.83
2023-03-16T01:24:04.857Z,68.35
2023-03-16T01:25:04.542Z,68.32
2023-03-16T01:26:04.686Z,68.15
2023-03-16T01:27:04.831Z,68.25
2023-03-16T01:28:05.091Z,67.70
2023-03-16T01:29:06.131Z,67.63
2023-03-16T01:30:05.790Z,67.80
2023-03-16T01:31:06.151Z,68.12
2023-03-16T01:32:05.570Z,67.18
2023-03-16T01:33:05.814Z,67.49
2023-03-16T01:34:05.886Z,67.08
2023-03-16T01:35:06.061Z,66.97
2023-03-16T01:36:06.239Z,67.18
2023-03-16T01:37:06.411Z,66.77
2023-03-16T01:38:06.562Z,67.08
2023-03-16T01:39:06.740Z,67.18
2023-03-16T01:40:06.971Z,67.08
2023-03-16T01:41:07.106Z,68.01
2023-03-16T01:42:07.260Z,68.12
2023-03-16T01:43:07.444Z,68.35
2023-03-16T01:44:07.604Z,68.22
2023-03-16T01:45:07.806Z,68.56
2023-03-16T01:46:07.917Z,68.35
2023-03-16T01:47:08.974Z,67.83
2023-03-16T01:48:08.246Z,68.12
2023-03-16T01:49:08.413Z,68.01
2023-03-16T01:50:08.643Z,68.35
2023-03-16T01:51:08.977Z,68.43
2023-03-16T01:52:09.025Z,68.53
2023-03-16T01:53:09.986Z,68.53
2023-03-16T01:54:09.361Z,68.66
2023-03-16T01:55:09.550Z,68.43
2023-03-16T01:56:09.700Z,68.95
2023-03-16T01:57:09.960Z,68.53
2023-03-16T01:58:12.438Z,69.29
2023-03-16T01:59:10.969Z,68.77
2023-03-16T02:00:11.299Z,69.40
2023-03-16T02:01:11.595Z,69.60
2023-03-16T02:02:11.429Z,69.15
2023-03-16T02:03:12.937Z,69.15
2023-03-16T02:04:11.983Z,69.26
2023-03-16T02:05:11.979Z,69.15
2023-03-16T02:06:11.485Z,68.43
2023-03-16T02:07:11.662Z,69.47
2023-03-16T02:08:13.444Z,69.47
2023-03-16T02:09:12.079Z,69.26
2023-03-16T02:10:12.973Z,69.26
2023-03-16T02:11:12.972Z,69.37
2023-03-16T02:12:12.470Z,69.47
2023-03-16T02:13:12.646Z,69.68
2023-03-16T02:14:12.790Z,69.57
2023-03-16T02:15:14.525Z,69.74
2023-03-16T02:16:13.200Z,69.64
2023-03-16T02:17:13.972Z,69.68
2023-03-16T02:18:13.570Z,70.30
2023-03-16T02:19:13.716Z,70.20
2023-03-16T02:20:15.438Z,70.09
2023-03-16T02:21:14.009Z,71.13
2023-03-16T02:22:14.157Z,70.92
2023-03-16T02:23:14.324Z,70.92
2023-03-16T02:24:14.481Z,70.92
2023-03-16T02:25:14.628Z,71.03
2023-03-16T02:26:15.442Z,70.61
2023-03-16T02:27:14.948Z,70.92
2023-03-16T02:28:15.144Z,70.72
2023-03-16T02:29:15.313Z,70.61
2023-03-16T02:30:15.521Z,71.13
2023-03-16T02:31:16.455Z,70.82
2023-03-16T02:32:16.476Z,70.92
2023-03-16T02:33:16.044Z,70.72
2023-03-16T02:34:16.149Z,71.55
2023-03-16T02:35:16.949Z,71.44
2023-03-16T02:36:16.513Z,71.34
2023-03-16T02:37:16.722Z,71.44
2023-03-16T02:38:16.888Z,71.86
2023-03-16T02:39:17.980Z,71.65
2023-03-16T02:40:17.297Z,71.65
2023-03-16T02:41:18.483Z,71.75
2023-03-16T02:42:17.619Z,71.23
2023-03-16T02:43:17.768Z,71.75
2023-03-16T02:44:17.957Z,71.65
2023-03-16T02:45:18.151Z,71.75
2023-03-16T02:46:18.392Z,71.55
2023-03-16T02:47:18.585Z,71.86
2023-03-16T02:48:18.713Z,71.97
2023-03-16T02:49:18.862Z,71.97
2023-03-16T02:50:19.011Z,71.86
2023-03-16T02:51:19.179Z,71.75
2023-03-16T02:52:19.348Z,71.44
2023-03-16T02:53:19.501Z,71.75
2023-03-16T02:54:19.648Z,71.13
2023-03-16T02:55:19.796Z,71.34
2023-03-16T02:56:20.940Z,71.97
2023-03-16T02:57:20.100Z,71.86
2023-03-16T02:58:20.281Z,71.75
2023-03-16T02:59:20.932Z,71.44
2023-03-16T03:00:21.591Z,71.86
2023-03-16T03:01:20.730Z,71.55
2023-03-16T03:02:20.896Z,71.23
2023-03-16T03:03:22.040Z,71.03
2023-03-16T03:04:21.808Z,71.34
2023-03-16T03:05:21.985Z,71.03
2023-03-16T03:06:22.444Z,70.82
2023-03-16T03:07:21.849Z,70.92
2023-03-16T03:08:22.819Z,70.72
2023-03-16T03:09:22.238Z,70.72
2023-03-16T03:10:23.947Z,70.92
2023-03-16T03:11:22.567Z,70.82
2023-03-16T03:12:22.728Z,70.92
2023-03-16T03:13:22.897Z,70.72
2023-03-16T03:14:23.084Z,70.82
2023-03-16T03:15:23.952Z,70.82
2023-03-16T03:16:23.491Z,70.92
2023-03-16T03:17:23.653Z,70.92
2023-03-16T03:18:23.797Z,70.82
2023-03-16T03:19:24.024Z,71.03
2023-03-16T03:20:24.212Z,70.82
2023-03-16T03:21:24.405Z,70.92
2023-03-16T03:22:24.582Z,71.13
2023-03-16T03:23:24.792Z,71.23
2023-03-16T03:24:24.974Z,71.37
2023-03-16T03:25:25.137Z,71.37
2023-03-16T03:26:26.019Z,71.37
2023-03-16T03:27:26.530Z,71.03
2023-03-16T03:28:25.693Z,71.17
2023-03-16T03:29:26.446Z,71.23
2023-03-16T03:30:26.339Z,71.03
2023-03-16T03:31:27.280Z,71.44
2023-03-16T03:32:26.419Z,71.65
2023-03-16T03:33:27.456Z,71.13
2023-03-16T03:34:26.837Z,71.06
2023-03-16T03:35:27.024Z,71.17
2023-03-16T03:36:27.517Z,71.55
2023-03-16T03:37:27.397Z,71.48
2023-03-16T03:38:27.556Z,71.79
2023-03-16T03:39:28.494Z,71.69
2023-03-16T03:40:28.209Z,71.23
2023-03-16T03:41:28.114Z,71.34
2023-03-16T03:42:28.278Z,71.79
2023-03-16T03:43:28.452Z,71.97
2023-03-16T03:44:28.600Z,72.41
2023-03-16T03:45:28.831Z,71.97
2023-03-16T03:46:29.081Z,71.97
2023-03-16T03:47:29.209Z,71.97
2023-03-16T03:48:29.384Z,72.17
2023-03-16T03:49:29.575Z,71.97
2023-03-16T03:50:30.607Z,72.07
2023-03-16T03:51:29.851Z,72.38
2023-03-16T03:52:30.949Z,72.17
2023-03-16T03:53:30.956Z,72.49
2023-03-16T03:54:30.402Z,72.80
2023-03-16T03:55:30.548Z,72.69
2023-03-16T03:56:30.713Z,72.17
2023-03-16T03:57:30.875Z,71.75
2023-03-16T03:58:31.033Z,72.38
2023-03-16T03:59:31.219Z,72.80
2023-03-16T04:00:31.376Z,72.49
2023-03-16T04:01:31.551Z,72.17
2023-03-16T04:02:31.883Z,72.28
2023-03-16T04:03:31.978Z,71.97
2023-03-16T04:04:32.048Z,72.49
2023-03-16T04:05:32.229Z,72.17
2023-03-16T04:06:33.954Z,72.17
2023-03-16T04:07:32.550Z,72.28
2023-03-16T04:08:33.504Z,72.49
2023-03-16T04:09:33.496Z,72.17
2023-03-16T04:10:33.514Z,72.28
2023-03-16T04:11:33.953Z,71.86
2023-03-16T04:12:33.451Z,72.28
2023-03-16T04:13:33.584Z,72.24
2023-03-16T04:14:36.956Z,71.97
2023-03-16T04:15:33.941Z,72.38
2023-03-16T04:16:34.153Z,72.59
2023-03-16T04:17:34.353Z,71.83
2023-03-16T04:18:36.204Z,71.97
2023-03-16T04:19:35.469Z,72.34
2023-03-16T04:20:36.471Z,72.59
2023-03-16T04:21:35.068Z,72.17
2023-03-16T04:22:35.229Z,72.38
2023-03-16T04:23:35.963Z,72.66
2023-03-16T04:24:35.584Z,72.59
2023-03-16T04:25:35.766Z,71.75
2023-03-16T04:26:35.912Z,71.86
2023-03-16T04:27:37.824Z,72.28
2023-03-16T04:28:36.171Z,71.83
2023-03-16T04:29:36.338Z,72.24
2023-03-16T04:30:36.535Z,71.83
2023-03-16T04:31:36.731Z,72.07
2023-03-16T04:32:36.892Z,71.93
2023-03-16T04:33:37.058Z,72.03
2023-03-16T04:34:38.498Z,72.34
2023-03-16T04:35:37.484Z,72.38
2023-03-16T04:36:37.540Z,72.55
2023-03-16T04:37:37.727Z,71.51
2023-03-16T04:38:37.944Z,71.51
2023-03-16T04:39:38.962Z,71.72
2023-03-16T04:40:38.255Z,72.14
2023-03-16T04:41:38.404Z,71.51
2023-03-16T04:42:38.562Z,71.93
2023-03-16T04:43:38.714Z,72.03
2023-03-16T04:44:38.903Z,71.93
2023-03-16T04:45:39.049Z,71.72
2023-03-16T04:46:39.270Z,71.83
2023-03-16T04:47:39.395Z,71.83
2023-03-16T04:48:39.574Z,71.83
2023-03-16T04:49:39.747Z,71.72
2023-03-16T04:50:40.473Z,72.34
2023-03-16T04:51:41.005Z,72.14
2023-03-16T04:52:40.259Z,72.14
2023-03-16T04:53:41.020Z,71.83
2023-03-16T04:54:41.362Z,71.10
2023-03-16T04:55:40.854Z,71.10
2023-03-16T04:56:41.722Z,72.14
2023-03-16T04:57:41.969Z,71.90
2023-03-16T04:58:41.332Z,72.21
2023-03-16T04:59:42.466Z,71.83
2023-03-16T05:00:41.593Z,71.69
2023-03-16T05:01:41.856Z,72.03
2023-03-16T05:02:42.452Z,71.80
2023-03-16T05:03:43.098Z,71.69
2023-03-16T05:04:42.366Z,71.59
2023-03-16T05:05:44.531Z,71.69
2023-03-16T05:06:42.673Z,71.80
2023-03-16T05:07:43.501Z,71.59
2023-03-16T05:08:43.000Z,72.11
2023-03-16T05:09:43.163Z,71.17
2023-03-16T05:10:44.004Z,71.69
2023-03-16T05:11:44.014Z,71.90
2023-03-16T05:12:43.635Z,72.00
2023-03-16T05:13:44.505Z,72.52
2023-03-16T05:14:44.003Z,72.21
2023-03-16T05:15:44.179Z,72.00
2023-03-16T05:16:44.287Z,71.90
2023-03-16T05:17:44.474Z,72.14
2023-03-16T05:18:44.651Z,72.45
2023-03-16T05:19:45.479Z,71.72
2023-03-16T05:20:44.997Z,71.59
2023-03-16T05:21:45.168Z,72.00
2023-03-16T05:22:45.971Z,71.69
2023-03-16T05:23:45.503Z,72.31
2023-03-16T05:24:46.508Z,72.03
2023-03-16T05:25:47.192Z,71.80
2023-03-16T05:26:48.009Z,72.00
2023-03-16T05:27:46.246Z,72.42
2023-03-16T05:28:47.468Z,71.83
2023-03-16T05:29:47.513Z,72.11
2023-03-16T05:30:46.823Z,72.00
2023-03-16T05:31:46.864Z,71.83
2023-03-16T05:32:47.141Z,72.24
2023-03-16T05:33:47.312Z,72.24
2023-03-16T05:34:47.457Z,72.42
2023-03-16T05:35:47.660Z,72.42
2023-03-16T05:36:48.507Z,72.11
2023-03-16T05:37:48.053Z,72.11
2023-03-16T05:38:48.286Z,72.21
2023-03-16T05:39:49.471Z,71.48
2023-03-16T05:40:49.023Z,71.90
2023-03-16T05:41:48.805Z,72.11
2023-03-16T05:42:49.966Z,71.90
2023-03-16T05:43:49.984Z,71.69
2023-03-16T05:44:50.142Z,71.80
2023-03-16T05:45:50.485Z,71.69
2023-03-16T05:46:49.717Z,72.42
2023-03-16T05:47:49.820Z,72.42
2023-03-16T05:48:50.008Z,72.00
2023-03-16T05:49:51.985Z,72.31
2023-03-16T05:50:50.364Z,72.00
2023-03-16T05:51:50.583Z,72.63
2023-03-16T05:52:51.516Z,72.11
2023-03-16T05:53:52.481Z,72.55
2023-03-16T05:54:51.148Z,72.11
2023-03-16T05:55:51.324Z,72.42
2023-03-16T05:56:51.502Z,72.63
2023-03-16T05:57:51.710Z,72.94
2023-03-16T05:58:51.879Z,72.52
2023-03-16T05:59:52.926Z,72.42
2023-03-16T06:00:53.187Z,73.04
2023-03-16T06:01:52.993Z,73.46
2023-03-16T06:02:52.628Z,73.14
2023-03-16T06:03:53.590Z,73.04
2023-03-16T06:04:52.938Z,73.25
2023-03-16T06:05:54.010Z,73.25
2023-03-16T06:06:53.289Z,73.46
2023-03-16T06:07:53.485Z,72.83
2023-03-16T06:08:53.674Z,73.07
2023-03-16T06:09:53.837Z,72.73
2023-03-16T06:10:53.983Z,73.04
2023-03-16T06:11:55.977Z,72.83
2023-03-16T06:12:55.978Z,72.90
2023-03-16T06:13:55.030Z,73.04
2023-03-16T06:14:55.492Z,72.52
2023-03-16T06:15:55.047Z,72.28
2023-03-16T06:16:55.141Z,72.90
2023-03-16T06:17:55.978Z,72.69
2023-03-16T06:18:58.493Z,72.90
2023-03-16T06:19:55.594Z,72.59
2023-03-16T06:20:56.483Z,72.38
2023-03-16T06:21:57.578Z,72.07
2023-03-16T06:22:57.480Z,72.80
2023-03-16T06:23:56.242Z,72.80
2023-03-16T06:24:57.052Z,72.21
2023-03-16T06:25:56.550Z,72.49
2023-03-16T06:26:56.727Z,72.49
2023-03-16T06:27:57.485Z,72.28
2023-03-16T06:28:57.048Z,72.49
2023-03-16T06:29:58.050Z,72.49
2023-03-16T06:30:57.412Z,72.49
2023-03-16T06:31:58.551Z,72.77
2023-03-16T06:32:58.572Z,72.56
2023-03-16T06:33:58.117Z,72.59
2023-03-16T06:34:58.257Z,72.07
2023-03-16T06:35:58.472Z,72.45
2023-03-16T06:36:59.978Z,71.83
2023-03-16T06:37:59.486Z,72.25
2023-03-16T06:38:58.989Z,72.04
2023-03-16T06:39:59.537Z,72.04
2023-03-16T06:41:00.470Z,71.94
2023-03-16T06:41:59.470Z,72.45
2023-03-16T06:43:00.481Z,71.83
2023-03-16T06:43:59.737Z,72.04
2023-03-16T06:44:59.912Z,71.94
2023-03-16T06:46:00.170Z,72.45
2023-03-16T06:47:00.224Z,71.94
2023-03-16T06:48:00.366Z,71.80
2023-03-16T06:49:01.048Z,72.01
2023-03-16T06:50:01.985Z,72.01
2023-03-16T06:51:00.863Z,71.91
2023-03-16T06:52:00.998Z,71.39
2023-03-16T06:53:01.117Z,71.80
2023-03-16T06:54:02.015Z,71.56
2023-03-16T06:55:01.591Z,71.04
2023-03-16T06:56:01.662Z,70.59
2023-03-16T06:57:01.831Z,70.87
2023-03-16T06:58:02.488Z,70.46
2023-03-16T06:59:02.147Z,69.25
2023-03-16T07:00:02.873Z,68.49
2023-03-16T07:01:04.019Z,67.98
2023-03-16T07:02:03.044Z,67.50
2023-03-16T07:03:03.838Z,65.69
2023-03-16T07:04:03.564Z,64.59
2023-03-16T07:05:04.035Z,63.17
2023-03-16T07:06:03.324Z,61.35
2023-03-16T07:07:03.520Z,62.24
2023-03-16T07:08:03.783Z,61.66
2023-03-16T07:09:06.366Z,60.56
2023-03-16T07:10:04.008Z,62.47
2023-03-16T07:11:06.854Z,64.24
2023-03-16T07:12:04.360Z,65.64
2023-03-16T07:13:05.576Z,67.54
2023-03-16T07:14:04.768Z,68.60
2023-03-16T07:15:04.980Z,68.80
2023-03-16T07:16:05.855Z,68.22
2023-03-16T07:17:06.119Z,68.63
2023-03-16T07:18:05.435Z,68.40
2023-03-16T07:19:05.672Z,68.43
2023-03-16T07:20:06.358Z,69.15
2023-03-16T07:21:06.040Z,68.63
2023-03-16T07:22:06.221Z,69.35
2023-03-16T07:23:06.990Z,68.84
2023-03-16T07:24:07.501Z,68.94
2023-03-16T07:25:07.543Z,68.84
2023-03-16T07:26:08.565Z,69.15
2023-03-16T07:27:07.089Z,69.01
2023-03-16T07:28:07.997Z,68.63
2023-03-16T07:29:08.035Z,68.29
2023-03-16T07:30:07.562Z,68.29
2023-03-16T07:31:07.750Z,68.08
2023-03-16T07:32:08.091Z,68.70
2023-03-16T07:33:08.218Z,68.94
2023-03-16T07:34:08.215Z,68.43
2023-03-16T07:35:08.419Z,68.43
2023-03-16T07:36:09.575Z,68.22
2023-03-16T07:37:09.063Z,69.04
2023-03-16T07:38:09.027Z,69.56
2023-03-16T07:39:09.243Z,69.15
2023-03-16T07:40:09.586Z,69.04
2023-03-16T07:41:09.644Z,68.25
2023-03-16T07:42:10.495Z,69.70
2023-03-16T07:43:10.097Z,69.39
2023-03-16T07:44:10.300Z,69.80
2023-03-16T07:45:10.517Z,69.90
2023-03-16T07:46:11.518Z,69.80
2023-03-16T07:47:10.841Z,69.49
2023-03-16T07:48:11.022Z,69.08
2023-03-16T07:49:12.007Z,68.87
2023-03-16T07:50:11.398Z,68.98
2023-03-16T07:51:12.504Z,68.98
2023-03-16T07:52:12.496Z,68.18
2023-03-16T07:53:12.541Z,68.56
2023-03-16T07:54:12.206Z,68.77
2023-03-16T07:55:12.402Z,68.87
2023-03-16T07:56:12.606Z,68.56
2023-03-16T07:57:12.773Z,68.77
2023-03-16T07:58:13.870Z,68.15
2023-03-16T07:59:13.179Z,68.04
2023-03-16T08:00:14.053Z,68.77
2023-03-16T08:01:14.508Z,68.15
2023-03-16T08:02:13.848Z,69.04
2023-03-16T08:03:14.566Z,67.39
2023-03-16T08:04:14.107Z,68.12
2023-03-16T08:05:15.047Z,67.49
2023-03-16T08:06:14.466Z,67.08
2023-03-16T08:07:14.659Z,68.12
2023-03-16T08:08:15.546Z,67.60
2023-03-16T08:09:15.068Z,67.08
2023-03-16T08:10:15.139Z,67.49
2023-03-16T08:11:15.314Z,67.70
2023-03-16T08:12:15.498Z,67.70
2023-03-16T08:13:16.565Z,67.60
2023-03-16T08:14:15.825Z,67.91
2023-03-16T08:15:15.956Z,67.60
2023-03-16T08:16:16.199Z,67.91
2023-03-16T08:17:16.286Z,66.63
2023-03-16T08:18:18.024Z,66.22
2023-03-16T08:19:16.677Z,66.42
2023-03-16T08:20:16.873Z,66.02
2023-03-16T08:21:17.081Z,66.42
2023-03-16T08:22:18.051Z,66.42
2023-03-16T08:23:18.024Z,66.50
2023-03-16T08:24:19.523Z,65.70
2023-03-16T08:25:17.923Z,65.91
2023-03-16T08:26:20.013Z,65.70
2023-03-16T08:27:19.011Z,65.05
2023-03-16T08:28:19.011Z,65.16
2023-03-16T08:29:19.057Z,65.12
2023-03-16T08:30:19.511Z,64.61
2023-03-16T08:31:19.064Z,65.12
2023-03-16T08:32:19.112Z,65.02
2023-03-16T08:33:21.243Z,64.27
2023-03-16T08:34:19.485Z,63.96
2023-03-16T08:35:19.659Z,63.72
2023-03-16T08:36:19.858Z,63.07
2023-03-16T08:37:20.071Z,62.32
2023-03-16T08:38:20.276Z,62.43
2023-03-16T08:39:21.061Z,62.50
2023-03-16T08:40:20.613Z,62.50
2023-03-16T08:41:21.552Z,61.36
2023-03-16T08:42:21.014Z,60.54
2023-03-16T08:43:21.180Z,62.19
2023-03-16T08:44:21.402Z,61.08
2023-03-16T08:45:21.613Z,61.47
2023-03-16T08:46:21.830Z,61.36
2023-03-16T08:47:22.550Z,60.82
2023-03-16T08:48:23.022Z,60.61
2023-03-16T08:49:22.433Z,60.51
2023-03-16T08:50:23.554Z,60.54
2023-03-16T08:51:22.817Z,61.29
2023-03-16T08:52:23.119Z,62.53
2023-03-16T08:53:24.046Z,62.84
2023-03-16T08:54:23.349Z,62.63
2023-03-16T08:55:24.051Z,62.22
2023-03-16T08:56:23.730Z,63.46
2023-03-16T08:57:24.516Z,62.43
2023-03-16T08:58:25.054Z,63.25
2023-03-16T08:59:30.209Z,63.25
2023-03-16T09:00:26.587Z,64.07
2023-03-16T09:01:24.637Z,62.66
2023-03-16T09:02:26.568Z,64.21
2023-03-16T09:03:25.550Z,63.10
2023-03-16T09:04:25.393Z,63.93
2023-03-16T09:05:25.567Z,64.24
2023-03-16T09:06:28.021Z,63.93
2023-03-16T09:07:26.570Z,63.93
2023-03-16T09:08:25.993Z,63.79
2023-03-16T09:09:26.196Z,63.77
2023-03-16T09:10:26.652Z,63.35
2023-03-16T09:11:26.567Z,63.15
2023-03-16T09:12:26.767Z,63.56
2023-03-16T09:13:27.515Z,63.46
2023-03-16T09:14:27.066Z,63.46
2023-03-16T09:15:28.250Z,63.87
2023-03-16T09:16:27.476Z,64.18
2023-03-16T09:17:27.959Z,63.87
2023-03-16T09:18:27.739Z,63.39
2023-03-16T09:19:30.640Z,63.77
2023-03-16T09:20:30.041Z,63.87
2023-03-16T09:21:30.066Z,63.56
2023-03-16T09:22:29.026Z,63.97
2023-03-16T09:23:28.569Z,63.67
2023-03-16T09:24:29.074Z,63.46
2023-03-16T09:25:29.762Z,64.07
2023-03-16T09:26:30.070Z,63.04
2023-03-16T09:27:29.252Z,64.18
2023-03-16T09:28:30.056Z,64.00
2023-03-16T09:29:29.603Z,63.79
2023-03-16T09:30:30.886Z,64.31
2023-03-16T09:31:30.625Z,64.31
2023-03-16T09:32:30.188Z,64.76
2023-03-16T09:33:30.379Z,64.45
2023-03-16T09:34:31.506Z,65.09
2023-03-16T09:35:32.821Z,64.34
2023-03-16T09:36:30.835Z,65.61
2023-03-16T09:37:44.460Z,65.89
2023-03-16T09:38:33.151Z,65.89
2023-03-16T09:39:31.346Z,65.58
2023-03-16T09:40:32.197Z,65.69
2023-03-16T09:41:32.730Z,64.65
2023-03-16T09:42:32.562Z,65.37
2023-03-16T09:43:32.114Z,65.37
2023-03-16T09:44:32.571Z,65.27
2023-03-16T09:45:32.899Z,65.89
2023-03-16T09:46:34.998Z,65.89
2023-03-16T09:47:32.860Z,64.86
2023-03-16T09:48:33.020Z,65.58
2023-03-16T09:49:33.207Z,65.03
2023-03-16T09:50:47.080Z,65.17
2023-03-16T09:51:35.622Z,65.17
2023-03-16T09:52:33.728Z,65.58
2023-03-16T09:53:33.906Z,65.37
2023-03-16T09:54:35.026Z,65.06
2023-03-16T09:55:34.290Z,65.48
2023-03-16T09:56:34.511Z,66.30
2023-03-16T09:57:35.594Z,66.30
2023-03-16T09:58:34.860Z,66.20
2023-03-16T09:59:35.522Z,65.97
2023-03-16T10:00:36.030Z,65.97
2023-03-16T10:01:36.310Z,65.45
2023-03-16T10:02:35.470Z,65.48
2023-03-16T10:03:35.707Z,66.10
2023-03-16T10:04:35.786Z,66.27
2023-03-16T10:05:37.576Z,66.35
2023-03-16T10:06:37.031Z,65.34
2023-03-16T10:07:37.026Z,65.11
2023-03-16T10:08:37.528Z,66.04
2023-03-16T10:09:38.537Z,66.14
2023-03-16T10:10:36.880Z,65.59
2023-03-16T10:11:37.029Z,65.08
2023-03-16T10:12:38.028Z,64.67
2023-03-16T10:13:37.372Z,64.46
2023-03-16T10:14:38.165Z,64.25
2023-03-16T10:15:37.679Z,64.12
2023-03-16T10:16:37.864Z,64.02
2023-03-16T10:17:37.988Z,64.25
2023-03-16T10:18:38.253Z,63.71
2023-03-16T10:19:39.036Z,63.06
2023-03-16T10:20:38.520Z,62.82
2023-03-16T10:21:38.654Z,62.93
2023-03-16T10:22:39.571Z,63.13
2023-03-16T10:23:40.893Z,63.27
2023-03-16T10:24:40.977Z,63.27
2023-03-16T10:25:40.374Z,62.82
2023-03-16T10:26:39.496Z,63.06
2023-03-16T10:27:39.658Z,63.78
2023-03-16T10:28:39.823Z,63.57
2023-03-16T10:29:40.577Z,63.34
2023-03-16T10:30:41.441Z,63.24
2023-03-16T10:31:40.390Z,63.45
2023-03-16T10:32:40.535Z,63.72
2023-03-16T10:33:40.667Z,62.59
2023-03-16T10:34:40.856Z,63.39
2023-03-16T10:35:41.088Z,62.53
2023-03-16T10:36:41.213Z,63.56
2023-03-16T10:37:41.279Z,62.71
2023-03-16T10:38:42.079Z,61.76
2023-03-16T10:39:42.574Z,62.34
2023-03-16T10:40:43.546Z,61.21
2023-03-16T10:41:43.536Z,60.39
2023-03-16T10:42:43.039Z,60.21
2023-03-16T10:43:43.096Z,60.45
2023-03-16T10:44:43.077Z,60.96
2023-03-16T10:45:42.786Z,61.81
2023-03-16T10:46:44.206Z,62.19
2023-03-16T10:47:44.041Z,61.14
2023-03-16T10:48:43.909Z,61.86
2023-03-16T10:49:44.105Z,60.70
2023-03-16T10:50:43.628Z,60.80
2023-03-16T10:51:43.811Z,60.49
2023-03-16T10:52:44.548Z,59.39
2023-03-16T10:53:44.184Z,60.21
2023-03-16T10:54:46.046Z,61.14
2023-03-16T10:55:44.544Z,61.96
2023-03-16T10:56:44.695Z,62.16
2023-03-16T10:57:44.865Z,61.24
2023-03-16T10:58:45.096Z,60.24
2023-03-16T10:59:45.240Z,60.65
2023-03-16T11:00:45.397Z,60.35
2023-03-16T11:01:45.552Z,60.96
2023-03-16T11:02:47.084Z,61.86
2023-03-16T11:03:45.830Z,61.86
2023-03-16T11:04:46.636Z,60.93
2023-03-16T11:05:46.138Z,60.35
2023-03-16T11:06:47.089Z,61.07
2023-03-16T11:07:46.454Z,60.89
2023-03-16T11:08:46.629Z,60.89
2023-03-16T11:09:46.786Z,61.30
2023-03-16T11:10:55.495Z,61.40
2023-03-16T11:11:49.169Z,62.02
2023-03-16T11:12:47.314Z,61.99
2023-03-16T11:13:47.509Z,60.75
2023-03-16T11:14:49.572Z,60.45
2023-03-16T11:15:48.554Z,60.55
2023-03-16T11:16:48.620Z,60.68
2023-03-16T11:17:48.918Z,61.81
2023-03-16T11:18:48.311Z,61.91
2023-03-16T11:19:48.653Z,61.79
2023-03-16T11:20:50.106Z,61.99
2023-03-16T11:21:48.880Z,60.68
2023-03-16T11:22:49.095Z,61.40
2023-03-16T11:23:49.284Z,61.79
2023-03-16T11:24:50.558Z,60.06
2023-03-16T11:25:50.125Z,61.91
2023-03-16T11:26:50.598Z,61.71
2023-03-16T11:27:49.995Z,62.23
2023-03-16T11:28:50.166Z,62.53
2023-03-16T11:29:51.100Z,61.79
2023-03-16T11:30:50.585Z,62.09
2023-03-16T11:31:51.668Z,62.81
2023-03-16T11:32:50.939Z,61.99
2023-03-16T11:33:50.960Z,62.19
2023-03-16T11:34:53.127Z,61.79
2023-03-16T11:35:58.681Z,61.58
2023-03-16T11:36:53.625Z,61.27
2023-03-16T11:37:53.061Z,61.81
2023-03-16T11:38:51.834Z,61.68
2023-03-16T11:39:52.123Z,62.33
2023-03-16T11:40:53.069Z,61.27
2023-03-16T11:41:52.361Z,60.68
2023-03-16T11:42:52.526Z,60.68
2023-03-16T11:43:52.746Z,62.02
2023-03-16T11:44:52.972Z,61.84
2023-03-16T11:45:53.214Z,61.94
2023-03-16T11:46:53.620Z,62.02
2023-03-16T11:47:53.508Z,61.61
2023-03-16T11:48:54.568Z,62.05
2023-03-16T11:49:53.842Z,61.91
2023-03-16T11:50:54.028Z,62.12
2023-03-16T11:51:54.227Z,61.91
2023-03-16T11:52:54.363Z,62.23
2023-03-16T11:53:54.523Z,62.05
2023-03-16T11:54:54.685Z,61.81
2023-03-16T11:55:54.858Z,61.71
2023-03-16T11:56:55.048Z,61.94
2023-03-16T11:57:55.226Z,63.05
2023-03-16T11:58:55.415Z,62.95
2023-03-16T12:00:01.233Z,63.56
2023-03-16T12:00:59.570Z,62.51
2023-03-16T12:02:00.730Z,63.09
2023-03-16T12:02:57.345Z,61.96
2023-03-16T12:03:56.508Z,61.65
2023-03-16T12:04:57.511Z,62.88
2023-03-16T12:05:56.692Z,61.62
2023-03-16T12:06:56.876Z,60.80
2023-03-16T12:07:57.603Z,61.62
2023-03-16T12:08:57.258Z,62.11
2023-03-16T12:09:58.570Z,60.57
2023-03-16T12:10:57.600Z,59.85
2023-03-16T12:11:58.569Z,61.90
2023-03-16T12:12:58.023Z,61.60
2023-03-16T12:13:59.062Z,59.82
2023-03-16T12:14:59.099Z,60.57
2023-03-16T12:15:58.530Z,61.77
2023-03-16T12:17:01.226Z,60.75
2023-03-16T12:18:00.597Z,60.10
2023-03-16T12:18:58.973Z,59.38
2023-03-16T12:19:59.126Z,60.03
2023-03-16T12:20:59.344Z,58.41
2023-03-16T12:22:00.116Z,59.82
2023-03-16T12:22:59.690Z,59.89
2023-03-16T12:24:00.601Z,59.48
2023-03-16T12:25:00.636Z,59.18
2023-03-16T12:26:00.609Z,59.18
2023-03-16T12:27:00.400Z,59.80
2023-03-16T12:28:00.577Z,59.87
2023-03-16T12:29:00.711Z,58.44
2023-03-16T12:30:02.585Z,58.05
2023-03-16T12:31:01.112Z,58.46
2023-03-16T12:32:02.065Z,58.15
2023-03-16T12:33:01.552Z,58.12
2023-03-16T12:34:01.666Z,57.82
2023-03-16T12:35:01.879Z,59.56
2023-03-16T12:36:02.096Z,58.10
2023-03-16T12:37:02.299Z,58.20
2023-03-16T12:38:02.508Z,56.84
2023-03-16T12:39:02.695Z,56.77
2023-03-16T12:40:02.875Z,57.69
2023-03-16T12:41:04.561Z,58.28
2023-03-16T12:42:03.215Z,57.94
2023-03-16T12:43:03.372Z,58.15
2023-03-16T12:44:03.554Z,57.81
2023-03-16T12:45:03.765Z,56.59
2023-03-16T12:46:05.076Z,56.00
2023-03-16T12:47:04.099Z,57.02
2023-03-16T12:48:05.115Z,57.74
2023-03-16T12:49:04.496Z,57.76
2023-03-16T12:50:04.682Z,56.84
2023-03-16T12:51:05.632Z,57.59
2023-03-16T12:52:06.072Z,58.81
2023-03-16T12:53:05.200Z,59.02
2023-03-16T12:54:05.934Z,59.25
2023-03-16T12:55:06.570Z,60.15